Time;durP1;ratioP1;P1;durP2;ratioP2;P2;SDS_P1;SDS_P2;PMS_P1;PMS_P2;Temp;Humidity;BMP_temperature;BMP_pressure;BME280_temperature;BME280_humidity;BME280_pressure;Samples;Min_cycle;Max_cycle;Signal;HPM_P1;HPM_P2
2023/02/25 00:01:07;;;;;;;0.20;0.20;;;;;;;11.34;100.00;99993.25;7392866;19;20014;-58
2023/02/25 00:03:34;;;;;;;0.38;0.38;;;;;;;9.58;100.00;99993.44;7396588;19;20086;-57
2023/02/25 00:06:09;;;;;;;0.17;0.17;;;;;;;10.71;88.46;99996.47;7392458;19;20030;-57
2023/02/25 00:08:35;;;;;;;1.33;1.10;;;;;;;8.77;100.00;99994.94;7391927;19;20014;-57
2023/02/25 00:11:03;;;;;;;0.63;0.50;;;;;;;9.29;100.00;99998.72;7394140;19;20006;-57
2023/02/25 00:13:31;;;;;;;0.40;0.40;;;;;;;11.43;91.54;99993.19;7398194;19;20015;-57
2023/02/25 00:15:57;;;;;;;10.32;0.70;;;;;;;7.73;100.00;99995.09;7393824;19;20014;-57
2023/02/25 00:18:24;;;;;;;0.35;0.35;;;;;;;8.92;100.00;99982.00;7390287;19;20010;-57
2023/02/25 00:20:51;;;;;;;0.40;0.40;;;;;;;14.24;100.00;99972.38;7391701;19;20386;-57
2023/02/25 00:23:17;;;;;;;0.32;0.32;;;;;;;11.10;81.77;99973.00;7394139;19;20010;-57
2023/02/25 00:25:44;;;;;;;1.13;0.65;;;;;;;25.02;47.96;99951.22;7392376;19;20010;-55
2023/02/25 00:28:10;;;;;;;0.20;0.20;;;;;;;13.55;56.98;99974.31;7397274;19;20025;-57
2023/02/25 00:30:38;;;;;;;0.22;0.22;;;;;;;10.16;90.18;99985.59;7392886;19;20010;-57
2023/02/25 00:33:05;;;;;;;10.65;0.98;;;;;;;11.33;80.58;99980.53;7394001;19;20410;-57
2023/02/25 00:35:37;;;;;;;14.05;0.95;;;;;;;7.82;100.00;99990.38;7391366;19;20356;-57
2023/02/25 00:38:05;;;;;;;0.38;0.38;;;;;;;5.75;100.00;100000.88;7391146;19;20015;-56
2023/02/25 00:40:36;;;;;;;0.40;0.40;;;;;;;4.92;100.00;99998.03;7393434;19;20051;-57
2023/02/25 00:43:02;;;;;;;0.30;0.30;;;;;;;4.78;100.00;99992.91;7395220;19;20011;-56
2023/02/25 00:45:28;;;;;;;0.57;0.57;;;;;;;5.41;100.00;100001.47;7390763;19;20027;-55
2023/02/25 00:47:56;;;;;;;0.98;0.98;;;;;;;3.68;100.00;99997.41;7391579;19;20011;-56
2023/02/25 00:50:22;;;;;;;0.65;0.65;;;;;;;5.99;100.00;99983.59;7392825;19;20345;-55
2023/02/25 00:52:49;;;;;;;1.65;0.52;;;;;;;4.21;100.00;99984.44;7395955;19;20014;-55
2023/02/25 00:55:15;;;;;;;4.63;0.90;;;;;;;5.52;100.00;99979.84;7392596;19;20561;-55
2023/02/25 00:57:42;;;;;;;5.65;0.85;;;;;;;3.85;100.00;99984.47;7395167;19;20014;-55
2023/02/25 01:00:14;;;;;;;0.30;0.30;;;;;;;5.34;100.00;99974.81;7391392;19;20018;-55
2023/02/25 01:02:44;;;;;;;1.17;0.80;;;;;;;7.52;100.00;99974.47;7394099;19;20017;-56
2023/02/25 01:05:12;;;;;;;1.13;0.30;;;;;;;6.41;100.00;99980.72;7390086;19;20349;-55
2023/02/25 01:07:38;;;;;;;1.95;0.85;;;;;;;10.94;100.00;99970.63;7392526;19;20019;-55
2023/02/25 01:10:05;;;;;;;0.30;0.30;;;;;;;5.76;100.00;99975.56;7390618;19;20010;-56
2023/02/25 01:12:32;;;;;;;0.52;0.52;;;;;;;3.64;100.00;99987.66;7394118;19;20070;-55
2023/02/25 01:14:58;;;;;;;0.20;0.20;;;;;;;3.28;100.00;99984.09;7390963;19;20762;-55
2023/02/25 01:17:25;;;;;;;0.73;0.73;;;;;;;3.34;100.00;99985.13;7390098;19;20678;-55
2023/02/25 01:19:51;;;;;;;0.20;0.20;;;;;;;3.30;100.00;99984.44;7389393;19;20017;-55
2023/02/25 01:22:17;;;;;;;1.73;0.70;;;;;;;2.99;100.00;99992.88;7393336;19;20033;-55
2023/02/25 01:24:44;;;;;;;0.73;0.43;;;;;;;3.45;100.00;99992.00;7390121;19;20010;-55
2023/02/25 01:27:10;;;;;;;0.40;0.40;;;;;;;5.69;100.00;99989.63;7392081;19;20014;-55
2023/02/25 01:29:39;;;;;;;0.20;0.20;;;;;;;4.30;100.00;99990.94;7391839;19;20074;-55
2023/02/25 01:32:09;;;;;;;0.50;0.50;;;;;;;3.02;100.00;99994.78;7391700;19;20224;-55
2023/02/25 01:34:36;;;;;;;0.40;0.40;;;;;;;4.12;100.00;99990.53;7390649;19;20034;-55
2023/02/25 01:37:03;;;;;;;0.32;0.32;;;;;;;3.89;100.00;99990.69;7389077;19;20015;-57
2023/02/25 01:39:31;;;;;;;0.57;0.57;;;;;;;3.89;100.00;99995.41;7388320;19;20705;-56
2023/02/25 01:42:00;;;;;;;0.75;0.75;;;;;;;3.06;100.00;99990.00;7394663;19;20369;-56
2023/02/25 01:44:32;;;;;;;0.22;0.22;;;;;;;4.77;100.00;99994.09;7390304;19;20078;-57
2023/02/25 01:47:00;;;;;;;0.77;0.77;;;;;;;4.52;100.00;99982.91;7389842;19;20021;-57
2023/02/25 01:49:34;;;;;;;1.80;0.40;;;;;;;4.68;100.00;99988.41;7387896;19;20454;-57
2023/02/25 01:52:19;;;;;;;0.30;0.30;;;;;;;7.20;100.00;99983.16;7392059;19;20011;-57
2023/02/25 01:54:49;;;;;;;4.78;1.00;;;;;;;4.84;100.00;99988.41;7388368;19;20024;-57
2023/02/25 01:57:17;;;;;;;0.30;0.30;;;;;;;2.84;100.00;99988.81;7389585;19;20042;-57
2023/02/25 01:59:47;;;;;;;2.78;1.27;;;;;;;2.14;100.00;99990.75;7388100;19;20418;-58
2023/02/25 02:02:17;;;;;;;0.22;0.22;;;;;;;4.24;100.00;99994.63;7389320;19;20018;-55
2023/02/25 02:04:48;;;;;;;0.30;0.30;;;;;;;6.46;100.00;99993.97;7388130;19;20010;-56
2023/02/25 02:07:20;;;;;;;0.22;0.22;;;;;;;3.01;100.00;99998.72;7388232;19;20014;-56
2023/02/25 02:09:55;;;;;;;0.40;0.40;;;;;;;4.32;100.00;99999.53;7389495;19;20483;-56
2023/02/25 02:12:29;;;;;;;0.57;0.57;;;;;;;6.52;100.00;99995.00;7390131;19;20051;-56
2023/02/25 02:14:57;;;;;;;0.40;0.40;;;;;;;6.41;100.00;99998.06;7388219;19;20018;-56
2023/02/25 02:17:45;;;;;;;0.20;0.20;;;;;;;8.80;100.00;99993.25;7387395;19;20021;-56
2023/02/25 02:20:14;;;;;;;0.50;0.50;;;;;;;4.50;100.00;99997.13;7389381;19;20015;-56
2023/02/25 02:22:51;;;;;;;0.55;0.55;;;;;;;5.86;100.00;99996.63;7392049;19;20014;-56
2023/02/25 02:25:50;;;;;;;0.85;0.73;;;;;;;7.39;100.00;99993.94;7389905;19;20014;-56
2023/02/25 02:28:38;;;;;;;0.40;0.40;;;;;;;7.43;100.00;99993.81;7389893;19;20007;-56
2023/02/25 02:31:38;;;;;;;0.10;0.10;;;;;;;7.76;100.00;99999.72;7390088;19;20018;-56
2023/02/25 02:34:11;;;;;;;0.30;0.30;;;;;;;7.54;100.00;99994.97;7386461;19;20070;-56
2023/02/25 02:36:52;;;;;;;0.25;0.15;;;;;;;7.22;100.00;99989.81;7386926;19;20035;-56
2023/02/25 02:39:43;;;;;;;0.10;0.10;;;;;;;7.35;100.00;99987.75;7386455;19;20014;-56
2023/02/25 02:42:39;;;;;;;0.50;0.50;;;;;;;7.44;100.00;100007.22;7388142;19;20015;-56
2023/02/25 02:45:19;;;;;;;0.20;0.20;;;;;;;7.32;100.00;99996.22;7386524;19;20098;-56
2023/02/25 02:47:51;;;;;;;0.30;0.30;;;;;;;6.79;100.00;99992.50;7388390;19;20113;-56
2023/02/25 02:50:29;;;;;;;0.30;0.30;;;;;;;6.96;100.00;99993.88;7387056;19;20082;-56
2023/02/25 02:53:02;;;;;;;15.10;0.73;;;;;;;6.72;100.00;99995.50;7392142;19;20014;-56
2023/02/25 02:55:36;;;;;;;0.20;0.20;;;;;;;7.10;100.00;100001.72;7388796;19;20022;-55
2023/02/25 02:58:28;;;;;;;20.73;0.98;;;;;;;7.21;100.00;100004.88;7389856;19;20025;-56
2023/02/25 03:01:04;;;;;;;0.20;0.20;;;;;;;7.16;100.00;100008.22;7388275;19;20341;-56
2023/02/25 03:03:40;;;;;;;0.22;0.22;;;;;;;7.06;100.00;100001.03;7391802;19;20011;-55
2023/02/25 03:06:14;;;;;;;2.30;0.93;;;;;;;6.77;100.00;100006.78;7387118;19;20014;-56
2023/02/25 03:08:48;;;;;;;0.25;0.25;;;;;;;7.02;100.00;100003.16;7386326;19;20030;-56
2023/02/25 03:11:15;;;;;;;0.38;0.38;;;;;;;7.13;100.00;100009.13;7388301;19;20030;-55
2023/02/25 03:13:44;;;;;;;0.63;0.63;;;;;;;7.10;100.00;100010.03;7387876;19;20379;-55
2023/02/25 03:16:25;;;;;;;0.30;0.30;;;;;;;7.23;100.00;100013.53;7387298;19;20022;-56
2023/02/25 03:19:14;;;;;;;0.20;0.20;;;;;;;7.36;100.00;100005.91;7393571;19;20018;-56
2023/02/25 03:21:44;;;;;;;0.30;0.30;;;;;;;7.44;100.00;100006.44;7394340;19;20034;-56
2023/02/25 03:24:30;;;;;;;0.32;0.32;;;;;;;7.38;100.00;100014.56;7393157;19;20010;-56
2023/02/25 03:26:57;;;;;;;0.30;0.30;;;;;;;7.34;100.00;100018.69;7394904;19;20015;-56
2023/02/25 03:29:27;;;;;;;0.40;0.40;;;;;;;7.35;100.00;100021.00;7392570;19;20108;-56
2023/02/25 03:32:05;;;;;;;1.50;1.08;;;;;;;7.30;100.00;100029.09;7393681;19;20015;-56
2023/02/25 03:34:41;;;;;;;0.40;0.30;;;;;;;7.19;100.00;100026.69;7393260;19;20471;-55
2023/02/25 03:37:14;;;;;;;0.30;0.30;;;;;;;7.36;100.00;100028.06;7395466;19;20022;-56
2023/02/25 03:39:45;;;;;;;0.50;0.50;;;;;;;7.39;100.00;100021.66;7392948;19;20014;-56
2023/02/25 03:42:19;;;;;;;2.10;1.60;;;;;;;7.49;100.00;100020.47;7394848;19;20018;-56
2023/02/25 03:44:49;;;;;;;0.22;0.22;;;;;;;7.68;100.00;100021.41;7392781;19;20324;-56
2023/02/25 03:47:18;;;;;;;0.60;0.30;;;;;;;7.69;100.00;100013.88;7394346;19;20014;-56
2023/02/25 03:49:52;;;;;;;0.35;0.35;;;;;;;7.60;100.00;100020.13;7391342;19;20041;-56
2023/02/25 03:52:23;;;;;;;0.40;0.40;;;;;;;7.47;100.00;100022.19;7393984;19;20411;-56
2023/02/25 03:54:56;;;;;;;0.20;0.20;;;;;;;7.37;100.00;100015.00;7392282;19;20014;-56
2023/02/25 03:57:25;;;;;;;0.43;0.43;;;;;;;7.32;100.00;100016.34;7395767;19;20011;-56
2023/02/25 03:59:55;;;;;;;1.20;0.85;;;;;;;7.21;100.00;100020.72;7392941;19;20336;-56
2023/02/25 04:02:31;;;;;;;2.05;0.50;;;;;;;7.10;100.00;100025.88;7393331;19;20462;-56
2023/02/25 04:04:57;;;;;;;0.98;0.65;;;;;;;6.98;100.00;100013.59;7393367;19;20034;-56
2023/02/25 04:07:24;;;;;;;0.40;0.40;;;;;;;7.04;100.00;100028.41;7390522;19;20042;-56
2023/02/25 04:09:51;;;;;;;0.50;0.50;;;;;;;7.04;100.00;100031.19;7391994;19;20010;-56
2023/02/25 04:12:18;;;;;;;3.13;1.25;;;;;;;7.04;100.00;100045.03;7395845;19;20066;-55
2023/02/25 04:14:44;;;;;;;2.72;0.65;;;;;;;6.98;100.00;100038.50;7392203;19;20122;-56
2023/02/25 04:17:10;;;;;;;0.30;0.30;;;;;;;7.00;100.00;100052.69;7390385;19;20015;-56
2023/02/25 04:19:36;;;;;;;0.30;0.30;;;;;;;7.08;100.00;100051.22;7390777;19;20015;-56
2023/02/25 04:22:04;;;;;;;0.20;0.20;;;;;;;7.10;100.00;100059.09;7393122;19;20007;-56
2023/02/25 04:24:30;;;;;;;1.60;0.63;;;;;;;7.05;100.00;100056.88;7392152;19;20015;-56
2023/02/25 04:26:58;;;;;;;0.63;0.63;;;;;;;6.97;100.00;100059.13;7393803;19;20328;-56
2023/02/25 04:29:24;;;;;;;0.40;0.40;;;;;;;6.99;100.00;100059.44;7392688;19;20609;-56
2023/02/25 04:31:51;;;;;;;0.20;0.20;;;;;;;7.01;100.00;100057.00;7393400;19;20010;-56
2023/02/25 04:34:18;;;;;;;18.40;0.73;;;;;;;7.09;100.00;100052.78;7392052;19;20014;-56
2023/02/25 04:36:45;;;;;;;0.38;0.38;;;;;;;7.10;100.00;100056.31;7393505;19;20010;-56
2023/02/25 04:39:14;;;;;;;6.45;1.10;;;;;;;7.02;100.00;100060.56;7391595;19;20073;-55
2023/02/25 04:41:41;;;;;;;0.40;0.40;;;;;;;6.99;100.00;100065.00;7397133;19;20028;-56
2023/02/25 04:44:08;;;;;;;0.75;0.50;;;;;;;6.95;100.00;100072.66;7392020;19;20373;-56
2023/02/25 04:46:40;;;;;;;0.10;0.10;;;;;;;7.05;100.00;100074.28;7392775;19;20011;-55
2023/02/25 04:49:08;;;;;;;0.15;0.15;;;;;;;7.08;100.00;100067.81;7391747;19;20015;-56
2023/02/25 04:51:36;;;;;;;0.28;0.28;;;;;;;7.11;100.00;100072.47;7391805;19;20066;-56
2023/02/25 04:54:02;;;;;;;0.30;0.30;;;;;;;7.09;100.00;100074.94;7391867;19;20025;-56
2023/02/25 04:56:28;;;;;;;0.30;0.30;;;;;;;6.99;100.00;100073.28;7392612;19;20019;-56
2023/02/25 04:58:56;;;;;;;0.30;0.30;;;;;;;7.06;100.00;100064.72;7390243;19;20494;-56
2023/02/25 05:01:22;;;;;;;0.40;0.40;;;;;;;7.10;100.00;100070.94;7391201;19;20006;-56
2023/02/25 05:03:49;;;;;;;0.40;0.40;;;;;;;7.10;100.00;100070.94;7391037;19;20334;-56
2023/02/25 05:06:15;;;;;;;0.40;0.40;;;;;;;7.11;100.00;100066.94;7391956;19;20014;-56
2023/02/25 05:08:41;;;;;;;0.30;0.30;;;;;;;7.12;100.00;100062.97;7392384;19;20021;-55
2023/02/25 05:11:07;;;;;;;1.77;1.10;;;;;;;7.14;100.00;100060.53;7392612;19;20026;-55
2023/02/25 05:13:33;;;;;;;0.50;0.50;;;;;;;7.18;100.00;100065.94;7396699;19;20022;-56
2023/02/25 05:16:04;;;;;;;1.23;0.38;;;;;;;7.24;100.00;100064.91;7391527;19;20030;-55
2023/02/25 05:18:30;;;;;;;0.83;0.33;;;;;;;7.28;100.00;100071.09;7391391;19;20026;-55
2023/02/25 05:20:56;;;;;;;0.80;0.80;;;;;;;7.26;100.00;100062.47;7390233;19;20006;-55
2023/02/25 05:23:22;;;;;;;0.30;0.30;;;;;;;7.29;100.00;100055.28;7394425;19;20034;-55
2023/02/25 05:25:49;;;;;;;0.30;0.30;;;;;;;7.25;100.00;100055.41;7391125;19;20034;-56
2023/02/25 05:28:15;;;;;;;0.93;0.93;;;;;;;7.25;100.00;100055.41;7395972;19;20021;-55
2023/02/25 05:30:41;;;;;;;21.60;1.38;;;;;;;7.18;100.00;100058.41;7389830;19;20016;-57
2023/02/25 05:33:08;;;;;;;0.40;0.40;;;;;;;7.12;100.00;100057.44;7394657;19;20078;-60
2023/02/25 05:35:34;;;;;;;0.30;0.30;;;;;;;7.11;100.00;100055.09;7390791;19;20016;-56
2023/02/25 05:38:00;;;;;;;0.20;0.20;;;;;;;6.94;100.00;100057.25;7388552;19;20010;-56
2023/02/25 05:40:26;;;;;;;10.23;1.20;;;;;;;6.91;100.00;100058.13;7389196;19;20010;-56
2023/02/25 05:42:52;;;;;;;0.22;0.22;;;;;;;7.02;100.00;100072.38;7394126;19;20017;-56
2023/02/25 05:45:18;;;;;;;0.32;0.32;;;;;;;7.11;100.00;100078.03;7390272;19;20021;-56
2023/02/25 05:47:44;;;;;;;0.40;0.40;;;;;;;7.14;100.00;100081.91;7391022;19;20010;-56
2023/02/25 05:50:11;;;;;;;3.95;1.48;;;;;;;7.16;100.00;100096.84;7390257;19;20030;-55
2023/02/25 05:52:37;;;;;;;0.28;0.28;;;;;;;7.17;100.00;100103.94;7394061;19;20052;-56
2023/02/25 05:55:04;;;;;;;1.23;0.43;;;;;;;7.24;100.00;100102.91;7390893;19;20006;-56
2023/02/25 05:57:30;;;;;;;0.60;0.60;;;;;;;6.42;100.00;100103.97;7393399;19;20014;-56
2023/02/25 06:00:00;;;;;;;0.30;0.30;;;;;;;7.04;100.00;100105.19;7388529;19;20014;-56
2023/02/25 06:02:26;;;;;;;0.30;0.30;;;;;;;7.38;100.00;100108.00;7392045;19;20046;-56
2023/02/25 06:04:53;;;;;;;0.20;0.20;;;;;;;7.56;100.00;100113.69;7393817;19;20018;-56
2023/02/25 06:07:19;;;;;;;0.43;0.40;;;;;;;7.70;100.00;100109.66;7393497;19;20030;-56
2023/02/25 06:09:45;;;;;;;0.55;0.55;;;;;;;7.79;100.00;100104.97;7393364;19;20007;-55
2023/02/25 06:12:12;;;;;;;2.58;0.45;;;;;;;7.81;100.00;100108.06;7391594;19;20037;-56
2023/02/25 06:14:38;;;;;;;0.60;0.60;;;;;;;7.92;100.00;100100.13;7392310;19;20025;-56
2023/02/25 06:17:04;;;;;;;0.45;0.45;;;;;;;7.92;100.00;100099.34;7392967;19;20026;-56
2023/02/25 06:19:30;;;;;;;0.30;0.30;;;;;;;7.98;100.00;100101.09;7390325;19;20028;-55
2023/02/25 06:21:56;;;;;;;0.20;0.20;;;;;;;7.99;100.00;100101.88;7392540;19;20014;-55
2023/02/25 06:24:23;;;;;;;0.38;0.38;;;;;;;7.98;100.00;100108.63;7391777;19;20006;-56
2023/02/25 06:26:49;;;;;;;0.38;0.38;;;;;;;8.01;100.00;100116.06;7390679;19;20019;-55
2023/02/25 06:29:16;;;;;;;0.40;0.40;;;;;;;7.95;100.00;100115.09;7390276;19;20034;-55
2023/02/25 06:31:42;;;;;;;0.38;0.38;;;;;;;7.88;100.00;100110.56;7391498;19;20010;-55
2023/02/25 06:34:08;;;;;;;1.10;1.05;;;;;;;7.80;100.00;100114.03;7389818;19;20010;-55
2023/02/25 06:36:34;;;;;;;0.52;0.52;;;;;;;7.71;100.00;100119.53;7389276;19;20550;-55
2023/02/25 06:39:00;;;;;;;0.20;0.20;;;;;;;7.39;100.00;100117.84;7385876;19;20314;-55
2023/02/25 06:41:26;;;;;;;13.43;0.73;;;;;;;7.22;100.00;100117.22;7392298;19;20803;-55
2023/02/25 06:43:53;;;;;;;0.30;0.30;;;;;;;7.40;100.00;100127.72;7389163;19;20031;-55
2023/02/25 06:46:21;;;;;;;0.30;0.30;;;;;;;7.45;100.00;100122.34;7388924;19;20078;-55
2023/02/25 06:48:47;;;;;;;0.20;0.20;;;;;;;7.41;100.00;100132.00;7387521;19;20377;-54
2023/02/25 06:51:14;;;;;;;0.40;0.40;;;;;;;7.33;100.00;100127.94;7392576;19;20010;-54
2023/02/25 06:53:43;;;;;;;0.30;0.30;;;;;;;7.25;100.00;100132.97;7400225;19;20070;-54
2023/02/25 06:56:11;;;;;;;1.20;0.50;;;;;;;7.22;100.00;100133.84;7395908;19;20034;-54
2023/02/25 06:58:38;;;;;;;0.20;0.20;;;;;;;7.12;100.00;100134.97;7390493;19;20086;-54
2023/02/25 07:01:06;;;;;;;0.38;0.38;;;;;;;7.07;100.00;100132.75;7395351;19;20011;-54
2023/02/25 07:03:32;;;;;;;0.17;0.17;;;;;;;7.06;100.00;100135.97;7399611;19;20018;-54
2023/02/25 07:05:58;;;;;;;0.30;0.30;;;;;;;7.07;100.00;100146.59;7396714;19;20355;-54
2023/02/25 07:08:24;;;;;;;0.85;0.85;;;;;;;7.11;100.00;100144.47;7395317;19;20011;-54
2023/02/25 07:10:51;;;;;;;0.38;0.38;;;;;;;7.20;100.00;100154.88;7395526;19;20014;-54
2023/02/25 07:13:17;;;;;;;0.65;0.43;;;;;;;7.33;100.00;100156.41;7399161;19;20015;-54
2023/02/25 07:15:43;;;;;;;0.40;0.40;;;;;;;7.43;100.00;100149.75;7393156;19;20852;-55
2023/02/25 07:18:09;;;;;;;0.98;0.50;;;;;;;7.52;100.00;100147.06;7392467;19;20026;-55
2023/02/25 07:20:38;;;;;;;0.10;0.10;;;;;;;7.65;100.00;100149.78;7394997;19;20019;-54
2023/02/25 07:23:05;;;;;;;0.40;0.40;;;;;;;7.75;100.00;100153.44;7397715;19;20042;-54
2023/02/25 07:25:31;;;;;;;2.20;0.70;;;;;;;7.87;100.00;100160.91;7393426;19;20059;-54
2023/02/25 07:27:57;;;;;;;0.17;0.17;;;;;;;7.95;100.00;100162.25;7395030;19;20124;-54
2023/02/25 07:30:23;;;;;;;2.60;0.88;;;;;;;7.98;100.00;100155.78;7395783;19;20365;-55
2023/02/25 07:32:49;;;;;;;0.60;0.25;;;;;;;8.04;100.00;100159.50;7398487;19;20018;-54
2023/02/25 07:35:16;;;;;;;0.30;0.30;;;;;;;8.06;100.00;100165.38;7394302;19;20018;-54
2023/02/25 07:37:42;;;;;;;0.77;0.77;;;;;;;8.18;100.00;100159.78;7393610;19;20014;-54
2023/02/25 07:40:11;;;;;;;15.43;1.85;;;;;;;8.24;100.00;100171.84;7395235;19;20062;-54
2023/02/25 07:42:40;;;;;;;2.60;0.73;;;;;;;8.18;100.00;100172.88;7395293;19;20010;-54
2023/02/25 07:45:07;;;;;;;0.30;0.30;;;;;;;8.19;100.00;100185.50;7391510;19;20023;-54
2023/02/25 07:47:33;;;;;;;2.97;0.75;;;;;;;8.19;100.00;100180.75;7393044;19;20070;-54
2023/02/25 07:50:00;;;;;;;4.72;1.13;;;;;;;8.26;100.00;100182.53;7394014;19;20035;-54
2023/02/25 07:52:26;;;;;;;0.50;0.50;;;;;;;8.35;100.00;100191.69;7396785;19;20017;-54
2023/02/25 07:54:53;;;;;;;0.50;0.50;;;;;;;8.40;100.00;100193.13;7392755;19;20046;-54
2023/02/25 07:57:19;;;;;;;1.40;0.57;;;;;;;8.50;100.00;100197.50;7396467;19;20006;-54
2023/02/25 07:59:45;;;;;;;0.30;0.30;;;;;;;8.56;100.00;100190.13;7394799;19;20011;-54
2023/02/25 08:02:11;;;;;;;0.60;0.60;;;;;;;8.62;100.00;100187.53;7391865;19;20136;-54
2023/02/25 08:04:37;;;;;;;7.70;2.13;;;;;;;8.66;100.00;100197.28;7394695;19;20082;-56
2023/02/25 08:07:04;;;;;;;2.75;0.95;;;;;;;8.72;100.00;100195.47;7394490;19;20462;-54
2023/02/25 08:09:30;;;;;;;1.67;0.95;;;;;;;8.75;100.00;100194.53;7394096;19;20763;-56
2023/02/25 08:11:56;;;;;;;0.30;0.30;;;;;;;8.78;100.00;100201.19;7393375;19;20412;-56
2023/02/25 08:14:22;;;;;;;0.20;0.20;;;;;;;8.81;100.00;100206.63;7393067;19;20039;-54
2023/02/25 08:16:49;;;;;;;0.30;0.30;;;;;;;8.96;100.00;100202.06;7392384;19;20139;-55
2023/02/25 08:19:15;;;;;;;1.30;0.65;;;;;;;8.99;100.00;100198.38;7391952;19;20079;-57
2023/02/25 08:21:41;;;;;;;2.58;0.82;;;;;;;9.03;100.00;100204.56;7395948;19;20015;-56
2023/02/25 08:24:08;;;;;;;0.30;0.30;;;;;;;5.46;100.00;100205.28;7395868;19;20375;-57
2023/02/25 08:26:34;;;;;;;0.50;0.50;;;;;;;4.13;100.00;100214.56;7393113;19;20321;-56
2023/02/25 08:29:01;;;;;;;0.43;0.43;;;;;;;7.93;100.00;100204.25;7394971;19;20038;-56
2023/02/25 08:31:27;;;;;;;1.38;0.68;;;;;;;8.60;100.00;100204.63;7392735;19;20518;-57
2023/02/25 08:33:53;;;;;;;0.20;0.20;;;;;;;8.90;100.00;100209.44;7390611;19;20026;-56
2023/02/25 08:36:29;;;;;;;0.30;0.30;;;;;;;9.03;100.00;100215.66;7392408;19;20015;-56
2023/02/25 08:38:57;;;;;;;0.30;0.30;;;;;;;9.15;100.00;100208.47;7391612;19;20015;-56
2023/02/25 08:41:25;;;;;;;2.10;0.98;;;;;;;9.21;100.00;100219.75;7396001;19;20015;-56
2023/02/25 08:43:53;;;;;;;0.85;0.85;;;;;;;9.21;100.00;100214.19;7396582;19;20011;-56
2023/02/25 08:46:22;;;;;;;0.25;0.25;;;;;;;9.31;100.00;100215.78;7394744;19;20011;-56
2023/02/25 08:48:50;;;;;;;0.88;0.77;;;;;;;9.38;100.00;100223.81;7396144;19;20486;-56
2023/02/25 08:51:17;;;;;;;7.03;1.13;;;;;;;9.46;100.00;100219.53;7392685;19;20675;-56
2023/02/25 08:53:44;;;;;;;7.18;0.55;;;;;;;9.49;100.00;100221.38;7393750;19;20031;-56
2023/02/25 08:56:13;;;;;;;0.50;0.50;;;;;;;9.44;100.00;100208.09;7393196;19;20384;-56
2023/02/25 08:58:40;;;;;;;0.20;0.20;;;;;;;9.48;100.00;100186.50;7390672;19;20018;-56
2023/02/25 09:01:15;;;;;;;0.28;0.28;;;;;;;9.59;100.00;100209.06;7390816;19;20015;-56
2023/02/25 09:03:51;;;;;;;4.75;0.50;;;;;;;9.57;100.00;100222.66;7394006;19;20024;-56
2023/02/25 09:06:23;;;;;;;2.92;0.73;;;;;;;9.58;100.00;100218.63;7391581;19;20013;-56
2023/02/25 09:08:50;;;;;;;2.85;1.20;;;;;;;9.69;100.00;100227.31;7390062;19;20017;-56
2023/02/25 09:11:17;;;;;;;0.38;0.38;;;;;;;9.67;100.00;100224.22;7389247;19;20363;-56
2023/02/25 09:13:44;;;;;;;1.10;1.00;;;;;;;9.55;100.00;100225.13;7388897;19;20021;-56
2023/02/25 09:16:10;;;;;;;5.15;0.40;;;;;;;9.66;100.00;100240.13;7391505;19;20023;-56
2023/02/25 09:18:37;;;;;;;2.10;0.82;;;;;;;9.72;100.00;100234.75;7388215;19;20450;-56
2023/02/25 09:21:03;;;;;;;0.25;0.25;;;;;;;9.87;100.00;100242.00;7390519;19;20011;-56
2023/02/25 09:23:29;;;;;;;0.30;0.30;;;;;;;9.72;100.00;100238.28;7395066;19;20040;-57
2023/02/25 09:25:55;;;;;;;0.40;0.40;;;;;;;9.85;100.00;100238.19;7390013;19;20011;-57
2023/02/25 09:28:22;;;;;;;0.30;0.30;;;;;;;9.84;100.00;100248.53;7390297;19;20026;-57
2023/02/25 09:30:48;;;;;;;1.60;0.43;;;;;;;9.84;100.00;100242.19;7390104;19;20018;-56
2023/02/25 09:33:14;;;;;;;0.38;0.35;;;;;;;9.87;100.00;100238.47;7393635;19;20436;-56
2023/02/25 09:35:40;;;;;;;0.50;0.50;;;;;;;10.10;100.00;100229.53;7390152;19;20027;-56
2023/02/25 09:38:07;;;;;;;0.30;0.30;;;;;;;10.19;100.00;100234.34;7388231;19;20015;-56
2023/02/25 09:40:33;;;;;;;6.25;0.80;;;;;;;10.15;100.00;100233.75;7391886;19;20056;-56
2023/02/25 09:43:07;;;;;;;9.10;0.88;;;;;;;10.20;100.00;100231.09;7394168;19;20034;-56
2023/02/25 09:45:35;;;;;;;0.32;0.32;;;;;;;10.18;100.00;100239.16;7390199;19;20537;-56
2023/02/25 09:48:11;;;;;;;6.13;0.63;;;;;;;10.10;100.00;100231.53;7390707;19;20017;-56
2023/02/25 09:50:49;;;;;;;0.40;0.40;;;;;;;10.16;100.00;100255.53;7390277;19;20010;-56
2023/02/25 09:53:21;;;;;;;0.47;0.47;;;;;;;10.27;100.00;100252.28;7393913;19;20384;-56
2023/02/25 09:55:50;;;;;;;0.63;0.60;;;;;;;10.41;100.00;100252.47;7388806;19;20022;-56
2023/02/25 09:58:20;;;;;;;0.55;0.20;;;;;;;10.42;100.00;100248.41;7388590;19;20012;-56
2023/02/25 10:01:06;;;;;;;0.50;0.50;;;;;;;10.51;100.00;100251.22;7388592;19;20007;-56
2023/02/25 10:03:54;;;;;;;0.20;0.20;;;;;;;10.53;100.00;100253.53;7393854;19;20026;-56
2023/02/25 10:06:42;;;;;;;0.82;0.82;;;;;;;10.64;100.00;100259.38;7389381;19;20070;-56
2023/02/25 10:09:45;;;;;;;0.60;0.60;;;;;;;10.54;100.00;100261.44;7388993;19;20046;-56
2023/02/25 10:12:19;;;;;;;0.30;0.30;;;;;;;10.58;100.00;100273.19;7389821;19;20768;-56
2023/02/25 10:15:01;;;;;;;0.70;0.68;;;;;;;10.63;100.00;100269.75;7389339;19;20021;-56
2023/02/25 10:17:43;;;;;;;0.63;0.40;;;;;;;10.75;100.00;100270.03;7389248;19;20006;-56
2023/02/25 10:20:32;;;;;;;0.15;0.15;;;;;;;11.01;100.00;100265.66;7387099;19;20010;-56
2023/02/25 10:23:01;;;;;;;0.15;0.15;;;;;;;11.05;99.10;100271.84;7392223;19;20006;-57
2023/02/25 10:25:31;;;;;;;11.80;0.63;;;;;;;11.09;99.65;100269.66;7390970;19;20014;-57
2023/02/25 10:28:06;;;;;;;0.20;0.20;;;;;;;11.02;99.67;100267.22;7400588;19;20011;-57
2023/02/25 10:30:51;;;;;;;0.55;0.55;;;;;;;11.14;97.50;100271.81;7397928;19;20114;-57
2023/02/25 10:33:23;;;;;;;1.42;0.30;;;;;;;11.02;97.34;100273.53;7399816;19;20566;-56
2023/02/25 10:36:04;;;;;;;4.95;0.82;;;;;;;11.02;96.45;100264.44;7397807;19;20025;-56
2023/02/25 10:38:33;;;;;;;0.75;0.47;;;;;;;11.03;96.67;100263.19;7394447;19;20011;-56
2023/02/25 10:40:59;;;;;;;1.88;0.28;;;;;;;11.16;97.74;100272.13;7395243;19;20068;-57
2023/02/25 10:43:25;;;;;;;1.10;0.60;;;;;;;11.17;97.81;100273.69;7401005;19;20085;-57
2023/02/25 10:46:01;;;;;;;2.85;0.30;;;;;;;11.20;99.07;100270.72;7396330;19;20343;-57
2023/02/25 10:48:28;;;;;;;5.88;0.82;;;;;;;11.25;97.24;100269.31;7395155;19;20031;-57
2023/02/25 10:51:05;;;;;;;3.80;0.82;;;;;;;11.19;96.65;100280.34;7395908;19;20010;-56
2023/02/25 10:53:33;;;;;;;1.10;0.20;;;;;;;11.31;97.67;100278.56;7400584;19;20777;-56
2023/02/25 10:56:00;;;;;;;1.42;0.68;;;;;;;11.44;97.69;100270.78;7395877;19;20014;-56
2023/02/25 10:58:35;;;;;;;1.20;0.38;;;;;;;11.37;96.69;100273.91;7394525;19;20042;-56
2023/02/25 11:01:21;;;;;;;0.50;0.30;;;;;;;11.43;94.56;100270.00;7396155;19;20364;-56
2023/02/25 11:03:58;;;;;;;1.38;0.75;;;;;;;11.44;95.46;100270.78;7394605;19;20550;-57
2023/02/25 11:06:26;;;;;;;0.55;0.50;;;;;;;11.34;94.78;100269.28;7394893;19;20014;-57
2023/02/25 11:08:57;;;;;;;1.15;0.57;;;;;;;11.31;94.18;100279.34;7395583;19;20056;-58
2023/02/25 11:11:30;;;;;;;0.30;0.10;;;;;;;11.33;95.03;100278.88;7396214;19;20007;-57
2023/02/25 11:14:13;;;;;;;0.95;0.30;;;;;;;11.46;95.04;100273.88;7395805;19;20359;-57
2023/02/25 11:16:43;;;;;;;0.20;0.20;;;;;;;11.58;93.79;100275.69;7393595;19;20010;-57
2023/02/25 11:19:21;;;;;;;0.22;0.22;;;;;;;11.68;93.47;100277.22;7394275;19;20014;-57
2023/02/25 11:21:48;;;;;;;0.10;0.10;;;;;;;11.86;94.17;100274.34;7394956;19;20018;-56
2023/02/25 11:24:26;;;;;;;0.30;0.30;;;;;;;11.94;91.91;100271.94;7395122;19;20014;-57
2023/02/25 11:26:53;;;;;;;0.35;0.35;;;;;;;12.08;89.81;100272.00;7396751;19;20017;-57
2023/02/25 11:29:23;;;;;;;0.20;0.20;;;;;;;12.21;87.90;100282.94;7395771;19;20048;-58
2023/02/25 11:31:58;;;;;;;0.55;0.55;;;;;;;12.35;86.75;100268.25;7395696;19;20002;-57
2023/02/25 11:34:30;;;;;;;0.30;0.30;;;;;;;12.56;85.90;100274.75;7395345;19;20014;-58
2023/02/25 11:37:33;;;;;;;0.30;0.30;;;;;;;12.73;83.94;100278.63;7392799;19;20011;-58
2023/02/25 11:39:59;;;;;;;5.38;1.45;;;;;;;12.73;81.45;100284.22;7394211;19;20007;-57